EZS1386 LFMN-LSGG
Flight info
| Callsign | EZS1386 |
|---|---|
| Flight time | 0h 38m |
| Altitude | 24000 |
| Route | IRMAR DCT KINES |
| Aircraft | A320/M-SDE2E3FGHIJ1RWXYZ/LB1 |
Departure
| Time | 2026-05-05 06:04 |
|---|---|
| Airport | Nice-Côte d'Azur Airport (LFMN) |
Arrival
| Time | 2026-05-05 06:42 |
|---|---|
| Airport | Geneva International Airport (LSGG) |
| Time | Latitude | Longitude | Altitude | Speed | Heading |
|---|---|---|---|---|---|
| 2026-05-05 05:23 | 43.66251 | 7.20610 | 21 ft | 0 kts | 228° |
| 2026-05-05 05:53 | 43.66261 | 7.20625 | 21 ft | 4 kts | 228° |
| 2026-05-05 05:53 | 43.66278 | 7.20651 | 23 ft | 4 kts | 230° |
| 2026-05-05 05:53 | 43.66293 | 7.20679 | 24 ft | 4 kts | 241° |
| 2026-05-05 05:54 | 43.66301 | 7.20708 | 25 ft | 2 kts | 274° |
| 2026-05-05 05:54 | 43.66300 | 7.20737 | 22 ft | 4 kts | 266° |
| 2026-05-05 05:54 | 43.66303 | 7.20772 | 25 ft | 4 kts | 257° |
| 2026-05-05 05:54 | 43.66308 | 7.20803 | 23 ft | 2 kts | 260° |
| 2026-05-05 05:55 | 43.66304 | 7.20785 | 25 ft | 4 kts | 251° |
| 2026-05-05 05:55 | 43.66289 | 7.20761 | 23 ft | 4 kts | 212° |
| 2026-05-05 05:55 | 43.66265 | 7.20758 | 21 ft | 4 kts | 175° |
| 2026-05-05 05:55 | 43.66258 | 7.20760 | 21 ft | 0 kts | 171° |
| 2026-05-05 05:57 | 43.66245 | 7.20763 | 21 ft | 4 kts | 169° |
| 2026-05-05 05:57 | 43.66199 | 7.20773 | 21 ft | 9 kts | 171° |
| 2026-05-05 05:58 | 43.66128 | 7.20789 | 21 ft | 12 kts | 169° |
| 2026-05-05 05:58 | 43.66039 | 7.20810 | 21 ft | 15 kts | 171° |
| 2026-05-05 05:58 | 43.65931 | 7.20834 | 21 ft | 16 kts | 170° |
| 2026-05-05 05:58 | 43.65815 | 7.20859 | 22 ft | 17 kts | 170° |
| 2026-05-05 05:59 | 43.65722 | 7.20827 | 22 ft | 14 kts | 225° |
| 2026-05-05 05:59 | 43.65635 | 7.20708 | 21 ft | 20 kts | 224° |
| 2026-05-05 05:59 | 43.65537 | 7.20572 | 21 ft | 21 kts | 225° |
| 2026-05-05 05:59 | 43.65436 | 7.20434 | 21 ft | 19 kts | 225° |
| 2026-05-05 06:00 | 43.65341 | 7.20309 | 21 ft | 16 kts | 216° |
| 2026-05-05 06:00 | 43.65263 | 7.20312 | 21 ft | 10 kts | 141° |
| 2026-05-05 06:00 | 43.65211 | 7.20383 | 21 ft | 12 kts | 135° |
| 2026-05-05 06:00 | 43.65135 | 7.20479 | 21 ft | 16 kts | 151° |
| 2026-05-05 06:01 | 43.65040 | 7.20427 | 21 ft | 15 kts | 224° |
| 2026-05-05 06:01 | 43.64978 | 7.20342 | 22 ft | 11 kts | 226° |
| 2026-05-05 06:01 | 43.64913 | 7.20252 | 21 ft | 16 kts | 225° |
| 2026-05-05 06:01 | 43.64845 | 7.20158 | 21 ft | 12 kts | 225° |
| 2026-05-05 06:02 | 43.64785 | 7.20131 | 21 ft | 7 kts | 168° |
| 2026-05-05 06:02 | 43.64754 | 7.20159 | 22 ft | 3 kts | 136° |
| 2026-05-05 06:02 | 43.64733 | 7.20188 | 22 ft | 7 kts | 135° |
| 2026-05-05 06:02 | 43.64692 | 7.20254 | 24 ft | 8 kts | 103° |
| 2026-05-05 06:03 | 43.64714 | 7.20302 | 24 ft | 4 kts | 49° |
| 2026-05-05 06:03 | 43.64723 | 7.20315 | 24 ft | 0 kts | 46° |
| 2026-05-05 06:03 | 43.64760 | 7.20368 | 23 ft | 28 kts | 46° |
| 2026-05-05 06:03 | 43.65095 | 7.20827 | 22 ft | 104 kts | 45° |
| 2026-05-05 06:04 | 43.65497 | 7.21380 | 27 ft | 141 kts | 45° |
| 2026-05-05 06:04 | 43.66487 | 7.22812 | 755 ft | 156 kts | 55° |
| 2026-05-05 06:04 | 43.66746 | 7.23745 | 1234 ft | 163 kts | 87° |
| 2026-05-05 06:04 | 43.66366 | 7.25217 | 2008 ft | 168 kts | 130° |
| 2026-05-05 06:05 | 43.65268 | 7.26720 | 3068 ft | 165 kts | 135° |
| 2026-05-05 06:05 | 43.64431 | 7.27860 | 3638 ft | 178 kts | 135° |
| 2026-05-05 06:05 | 43.63824 | 7.28689 | 3885 ft | 193 kts | 135° |
| 2026-05-05 06:05 | 43.62815 | 7.30075 | 4331 ft | 216 kts | 136° |
| 2026-05-05 06:06 | 43.61626 | 7.31386 | 5144 ft | 223 kts | 158° |
| 2026-05-05 06:06 | 43.60102 | 7.31656 | 6025 ft | 225 kts | 193° |
| 2026-05-05 06:06 | 43.58696 | 7.30763 | 6968 ft | 223 kts | 214° |
| 2026-05-05 06:06 | 43.57386 | 7.29631 | 7943 ft | 222 kts | 214° |
| 2026-05-05 06:07 | 43.56132 | 7.28299 | 8559 ft | 239 kts | 231° |
| 2026-05-05 06:07 | 43.55433 | 7.26125 | 9066 ft | 263 kts | 263° |
| 2026-05-05 06:07 | 43.55779 | 7.23609 | 9823 ft | 280 kts | 296° |
| 2026-05-05 06:07 | 43.57147 | 7.21614 | 10440 ft | 304 kts | 324° |
| 2026-05-05 06:08 | 43.59146 | 7.20365 | 10938 ft | 326 kts | 339° |
| 2026-05-05 06:08 | 43.61380 | 7.19572 | 11739 ft | 335 kts | 345° |
| 2026-05-05 06:08 | 43.63694 | 7.18972 | 12573 ft | 341 kts | 347° |
| 2026-05-05 06:08 | 43.66053 | 7.18397 | 13424 ft | 347 kts | 346° |
| 2026-05-05 06:09 | 43.68440 | 7.17763 | 14176 ft | 352 kts | 345° |
| 2026-05-05 06:09 | 43.70853 | 7.17048 | 14889 ft | 357 kts | 343° |
| 2026-05-05 06:09 | 43.73287 | 7.16260 | 15569 ft | 362 kts | 342° |
| 2026-05-05 06:09 | 43.75749 | 7.15420 | 16259 ft | 368 kts | 342° |
| 2026-05-05 06:10 | 43.78248 | 7.14549 | 16962 ft | 373 kts | 342° |
| 2026-05-05 06:10 | 43.80781 | 7.13662 | 17657 ft | 378 kts | 342° |
| 2026-05-05 06:10 | 43.83353 | 7.12765 | 18272 ft | 384 kts | 342° |
| 2026-05-05 06:10 | 43.85966 | 7.11864 | 18780 ft | 390 kts | 342° |
| 2026-05-05 06:11 | 43.88647 | 7.10942 | 19436 ft | 393 kts | 342° |
| 2026-05-05 06:11 | 43.91273 | 7.10042 | 20096 ft | 395 kts | 342° |
| 2026-05-05 06:11 | 43.93990 | 7.09112 | 20745 ft | 398 kts | 342° |
| 2026-05-05 06:11 | 43.96652 | 7.08195 | 21388 ft | 401 kts | 342° |
| 2026-05-05 06:12 | 43.99402 | 7.07244 | 22025 ft | 404 kts | 342° |
| 2026-05-05 06:12 | 44.02141 | 7.06301 | 22664 ft | 407 kts | 342° |
| 2026-05-05 06:12 | 44.04900 | 7.05352 | 23232 ft | 411 kts | 343° |
| 2026-05-05 06:12 | 44.07651 | 7.04404 | 23576 ft | 413 kts | 343° |
| 2026-05-05 06:13 | 44.10446 | 7.03440 | 23810 ft | 415 kts | 343° |
| 2026-05-05 06:13 | 44.13250 | 7.02472 | 23928 ft | 414 kts | 342° |
| 2026-05-05 06:13 | 44.15983 | 7.01528 | 23957 ft | 396 kts | 342° |
| 2026-05-05 06:13 | 44.18596 | 7.00628 | 23962 ft | 378 kts | 342° |
| 2026-05-05 06:14 | 44.21126 | 6.99751 | 23970 ft | 374 kts | 342° |
| 2026-05-05 06:14 | 44.23647 | 6.98867 | 23960 ft | 373 kts | 342° |
| 2026-05-05 06:14 | 44.26164 | 6.97977 | 23961 ft | 373 kts | 342° |
| 2026-05-05 06:14 | 44.28683 | 6.97088 | 23961 ft | 373 kts | 343° |
| 2026-05-05 06:15 | 44.31200 | 6.96210 | 23959 ft | 373 kts | 343° |
| 2026-05-05 06:15 | 44.33755 | 6.95322 | 23961 ft | 373 kts | 343° |
| 2026-05-05 06:15 | 44.36237 | 6.94461 | 23960 ft | 373 kts | 343° |
| 2026-05-05 06:15 | 44.38757 | 6.93584 | 23960 ft | 373 kts | 343° |
| 2026-05-05 06:16 | 44.41273 | 6.92702 | 23981 ft | 374 kts | 343° |
| 2026-05-05 06:16 | 44.43795 | 6.91816 | 23969 ft | 374 kts | 343° |
| 2026-05-05 06:16 | 44.46326 | 6.90928 | 23962 ft | 375 kts | 343° |
| 2026-05-05 06:16 | 44.48888 | 6.90031 | 23960 ft | 375 kts | 343° |
| 2026-05-05 06:17 | 44.51388 | 6.89156 | 23958 ft | 375 kts | 343° |
| 2026-05-05 06:17 | 44.53923 | 6.88270 | 23955 ft | 375 kts | 343° |
| 2026-05-05 06:17 | 44.56455 | 6.87381 | 23953 ft | 375 kts | 343° |
| 2026-05-05 06:17 | 44.58987 | 6.86485 | 23956 ft | 376 kts | 343° |
| 2026-05-05 06:18 | 44.61527 | 6.85584 | 23964 ft | 376 kts | 343° |
| 2026-05-05 06:18 | 44.64066 | 6.84688 | 23963 ft | 376 kts | 343° |
| 2026-05-05 06:18 | 44.66639 | 6.83783 | 23999 ft | 376 kts | 343° |
| 2026-05-05 06:18 | 44.69174 | 6.82889 | 24000 ft | 376 kts | 343° |
| 2026-05-05 06:19 | 44.71711 | 6.81989 | 23989 ft | 375 kts | 343° |
| 2026-05-05 06:19 | 44.74241 | 6.81090 | 23986 ft | 375 kts | 343° |
| 2026-05-05 06:19 | 44.76768 | 6.80194 | 23980 ft | 374 kts | 343° |
| 2026-05-05 06:19 | 44.79305 | 6.79320 | 23982 ft | 376 kts | 347° |
| 2026-05-05 06:20 | 44.81907 | 6.78915 | 23984 ft | 378 kts | 356° |
| 2026-05-05 06:20 | 44.84538 | 6.78762 | 23976 ft | 378 kts | 356° |
| 2026-05-05 06:20 | 44.87161 | 6.78597 | 23983 ft | 378 kts | 356° |
| 2026-05-05 06:20 | 44.89792 | 6.78421 | 23981 ft | 379 kts | 356° |
| 2026-05-05 06:21 | 44.92426 | 6.78243 | 23986 ft | 379 kts | 356° |
| 2026-05-05 06:21 | 44.95058 | 6.78062 | 23972 ft | 379 kts | 356° |
| 2026-05-05 06:21 | 44.97694 | 6.77882 | 23974 ft | 379 kts | 356° |
| 2026-05-05 06:21 | 45.00324 | 6.77706 | 23975 ft | 379 kts | 356° |
| 2026-05-05 06:22 | 45.02963 | 6.77531 | 23973 ft | 379 kts | 356° |
| 2026-05-05 06:22 | 45.05603 | 6.77356 | 23977 ft | 380 kts | 356° |
| 2026-05-05 06:22 | 45.08240 | 6.77182 | 23980 ft | 380 kts | 356° |
| 2026-05-05 06:22 | 45.10883 | 6.77005 | 23981 ft | 380 kts | 356° |
| 2026-05-05 06:23 | 45.13524 | 6.76829 | 23960 ft | 380 kts | 356° |
| 2026-05-05 06:23 | 45.16161 | 6.76654 | 23965 ft | 380 kts | 356° |
| 2026-05-05 06:23 | 45.18800 | 6.76481 | 23967 ft | 379 kts | 356° |
| 2026-05-05 06:23 | 45.21442 | 6.76309 | 23963 ft | 379 kts | 357° |
| 2026-05-05 06:24 | 45.24078 | 6.76137 | 23958 ft | 380 kts | 357° |
| 2026-05-05 06:24 | 45.26720 | 6.75961 | 23955 ft | 380 kts | 356° |
| 2026-05-05 06:24 | 45.29361 | 6.75786 | 23957 ft | 380 kts | 356° |
| 2026-05-05 06:24 | 45.32003 | 6.75609 | 23959 ft | 380 kts | 356° |
| 2026-05-05 06:25 | 45.34615 | 6.75141 | 23962 ft | 379 kts | 348° |
| 2026-05-05 06:25 | 45.37200 | 6.74436 | 23952 ft | 378 kts | 348° |
| 2026-05-05 06:25 | 45.39784 | 6.73732 | 23953 ft | 378 kts | 348° |
| 2026-05-05 06:25 | 45.42374 | 6.73027 | 23945 ft | 379 kts | 348° |
| 2026-05-05 06:26 | 45.44961 | 6.72320 | 23948 ft | 379 kts | 348° |
| 2026-05-05 06:26 | 45.47551 | 6.71612 | 23951 ft | 379 kts | 348° |
| 2026-05-05 06:26 | 45.50139 | 6.70905 | 23962 ft | 379 kts | 348° |
| 2026-05-05 06:26 | 45.52728 | 6.70201 | 23930 ft | 379 kts | 348° |
| 2026-05-05 06:27 | 45.55319 | 6.69512 | 23939 ft | 379 kts | 348° |
| 2026-05-05 06:27 | 45.60505 | 6.68186 | 23566 ft | 380 kts | 349° |
| 2026-05-05 06:27 | 45.63107 | 6.67525 | 23046 ft | 379 kts | 349° |
| 2026-05-05 06:28 | 45.65692 | 6.66865 | 22604 ft | 376 kts | 348° |
| 2026-05-05 06:28 | 45.68254 | 6.66206 | 22188 ft | 373 kts | 348° |
| 2026-05-05 06:28 | 45.70799 | 6.65546 | 21778 ft | 370 kts | 348° |
| 2026-05-05 06:28 | 45.73314 | 6.64890 | 21374 ft | 366 kts | 348° |
| 2026-05-05 06:29 | 45.75813 | 6.64233 | 20959 ft | 364 kts | 348° |
| 2026-05-05 06:29 | 45.78296 | 6.63565 | 20532 ft | 362 kts | 348° |
| 2026-05-05 06:29 | 45.80752 | 6.62894 | 20190 ft | 357 kts | 347° |
| 2026-05-05 06:29 | 45.83183 | 6.62227 | 19817 ft | 354 kts | 347° |
| 2026-05-05 06:30 | 45.85594 | 6.61569 | 19512 ft | 352 kts | 347° |
| 2026-05-05 06:30 | 45.87997 | 6.60919 | 19277 ft | 351 kts | 347° |
| 2026-05-05 06:30 | 45.90392 | 6.60273 | 19043 ft | 350 kts | 347° |
| 2026-05-05 06:30 | 45.92784 | 6.59624 | 18806 ft | 349 kts | 347° |
| 2026-05-05 06:31 | 45.95151 | 6.58981 | 18468 ft | 345 kts | 347° |
| 2026-05-05 06:31 | 45.97503 | 6.58342 | 18117 ft | 342 kts | 347° |
| 2026-05-05 06:31 | 45.99815 | 6.57711 | 17489 ft | 336 kts | 347° |
| 2026-05-05 06:31 | 46.02100 | 6.57086 | 16807 ft | 332 kts | 347° |
| 2026-05-05 06:32 | 46.04354 | 6.56471 | 16153 ft | 328 kts | 347° |
| 2026-05-05 06:32 | 46.06579 | 6.55828 | 15486 ft | 324 kts | 344° |
| 2026-05-05 06:32 | 46.08748 | 6.54925 | 14569 ft | 328 kts | 339° |
| 2026-05-05 06:32 | 46.10920 | 6.53805 | 13625 ft | 333 kts | 337° |
| 2026-05-05 06:33 | 46.13077 | 6.52601 | 12762 ft | 332 kts | 336° |
| 2026-05-05 06:33 | 46.15220 | 6.51395 | 11953 ft | 329 kts | 336° |
| 2026-05-05 06:33 | 46.17353 | 6.50223 | 11165 ft | 327 kts | 337° |
| 2026-05-05 06:33 | 46.19478 | 6.49089 | 10375 ft | 324 kts | 338° |
| 2026-05-05 06:34 | 46.21586 | 6.47988 | 9579 ft | 321 kts | 338° |
| 2026-05-05 06:34 | 46.23672 | 6.46908 | 8691 ft | 316 kts | 339° |
| 2026-05-05 06:34 | 46.25733 | 6.45844 | 7893 ft | 312 kts | 339° |
| 2026-05-05 06:34 | 46.27746 | 6.44808 | 7437 ft | 298 kts | 339° |
| 2026-05-05 06:35 | 46.29632 | 6.43833 | 7191 ft | 279 kts | 340° |
| 2026-05-05 06:35 | 46.31412 | 6.42914 | 6945 ft | 264 kts | 340° |
| 2026-05-05 06:35 | 46.33092 | 6.42040 | 6704 ft | 250 kts | 339° |
| 2026-05-05 06:35 | 46.34690 | 6.41204 | 6454 ft | 238 kts | 340° |
| 2026-05-05 06:36 | 46.36210 | 6.40408 | 6202 ft | 227 kts | 339° |
| 2026-05-05 06:36 | 46.37661 | 6.39654 | 5984 ft | 215 kts | 340° |
| 2026-05-05 06:36 | 46.39012 | 6.38885 | 5720 ft | 203 kts | 328° |
| 2026-05-05 06:36 | 46.39895 | 6.37456 | 5637 ft | 184 kts | 289° |
| 2026-05-05 06:37 | 46.40059 | 6.35744 | 5569 ft | 165 kts | 257° |
| 2026-05-05 06:37 | 46.39638 | 6.34283 | 5443 ft | 154 kts | 227° |
| 2026-05-05 06:37 | 46.38889 | 6.33196 | 5293 ft | 155 kts | 223° |
| 2026-05-05 06:37 | 46.38125 | 6.32042 | 5101 ft | 164 kts | 222° |
| 2026-05-05 06:38 | 46.37304 | 6.30816 | 4877 ft | 175 kts | 223° |
| 2026-05-05 06:38 | 46.36426 | 6.29508 | 4624 ft | 186 kts | 222° |
| 2026-05-05 06:38 | 46.35513 | 6.28155 | 4372 ft | 190 kts | 223° |
| 2026-05-05 06:38 | 46.34593 | 6.26793 | 4106 ft | 187 kts | 222° |
| 2026-05-05 06:39 | 46.33700 | 6.25473 | 3848 ft | 178 kts | 224° |
| 2026-05-05 06:39 | 46.32863 | 6.24236 | 3621 ft | 166 kts | 224° |
| 2026-05-05 06:39 | 46.32083 | 6.23083 | 3424 ft | 156 kts | 224° |
| 2026-05-05 06:39 | 46.31330 | 6.21973 | 3212 ft | 153 kts | 223° |
| 2026-05-05 06:40 | 46.30587 | 6.20878 | 3003 ft | 152 kts | 224° |
| 2026-05-05 06:40 | 46.29849 | 6.19789 | 2787 ft | 151 kts | 225° |
| 2026-05-05 06:40 | 46.29115 | 6.18708 | 2558 ft | 150 kts | 225° |
| 2026-05-05 06:40 | 46.28383 | 6.17629 | 2353 ft | 150 kts | 225° |
| 2026-05-05 06:41 | 46.27651 | 6.16554 | 2136 ft | 150 kts | 225° |
| 2026-05-05 06:41 | 46.26922 | 6.15479 | 1933 ft | 150 kts | 225° |
| 2026-05-05 06:41 | 46.26192 | 6.14404 | 1727 ft | 150 kts | 226° |
| 2026-05-05 06:41 | 46.25464 | 6.13336 | 1540 ft | 149 kts | 226° |
| 2026-05-05 06:42 | 46.24740 | 6.12268 | 1371 ft | 145 kts | 226° |
| 2026-05-05 06:42 | 46.24133 | 6.11374 | 1375 ft | 101 kts | 225° |
| 2026-05-05 06:42 | 46.23761 | 6.10835 | 1381 ft | 37 kts | 223° |
| 2026-05-05 06:42 | 46.23617 | 6.10737 | 1382 ft | 17 kts | 195° |
| 2026-05-05 06:43 | 46.23560 | 6.10714 | 1383 ft | 6 kts | 195° |
| 2026-05-05 06:43 | 46.23539 | 6.10705 | 1386 ft | 5 kts | 196° |
| 2026-05-05 06:43 | 46.23466 | 6.10679 | 1390 ft | 12 kts | 185° |
| 2026-05-05 06:43 | 46.23413 | 6.10709 | 1400 ft | 13 kts | 138° |
| 2026-05-05 06:44 | 46.23347 | 6.10798 | 1402 ft | 14 kts | 150° |
| 2026-05-05 06:44 | 46.23250 | 6.10773 | 1393 ft | 13 kts | 201° |
| 2026-05-05 06:44 | 46.23194 | 6.10700 | 1398 ft | 11 kts | 225° |
| 2026-05-05 06:44 | 46.23145 | 6.10681 | 1393 ft | 6 kts | 144° |
| 2026-05-05 06:45 | 46.23136 | 6.10693 | 1396 ft | 0 kts | 136° |
| 2026-05-05 06:45 | 46.23130 | 6.10701 | 1396 ft | 1 kts | 136° |
| 2026-05-05 06:45 | 46.23130 | 6.10702 | 1396 ft | 0 kts | 136° |